createdAt,value
2023-03-20T00:01:20.130Z,11.52
2023-03-20T00:03:46.893Z,11.57
2023-03-20T00:06:20.183Z,11.59
2023-03-20T00:08:48.704Z,11.63
2023-03-20T00:11:31.150Z,11.63
2023-03-20T00:14:00.877Z,11.70
2023-03-20T00:16:34.563Z,11.72
2023-03-20T00:19:01.934Z,11.74
2023-03-20T00:21:28.729Z,11.78
2023-03-20T00:23:56.650Z,11.79
2023-03-20T00:26:35.485Z,11.78
2023-03-20T00:29:04.179Z,11.83
2023-03-20T00:31:35.420Z,11.82
2023-03-20T00:34:10.190Z,11.81
2023-03-20T00:36:36.731Z,11.80
2023-03-20T00:39:04.651Z,11.77
2023-03-20T00:41:36.658Z,11.72
2023-03-20T00:44:12.680Z,11.68
2023-03-20T00:46:39.791Z,11.65
2023-03-20T00:49:06.452Z,11.63
2023-03-20T00:51:33.007Z,11.59
2023-03-20T00:53:59.641Z,11.57
2023-03-20T00:56:33.983Z,11.53
2023-03-20T00:59:04.314Z,11.51
2023-03-20T01:01:32.148Z,11.52
2023-03-20T01:03:59.818Z,11.50
2023-03-20T01:06:26.404Z,11.47
2023-03-20T01:08:52.930Z,11.46
2023-03-20T01:11:23.305Z,11.43
2023-03-20T01:13:52.279Z,11.45
2023-03-20T01:16:23.095Z,11.44
2023-03-20T01:18:50.529Z,11.47
2023-03-20T01:21:18.485Z,11.50
2023-03-20T01:23:45.134Z,11.51
2023-03-20T01:26:51.800Z,11.49
2023-03-20T01:29:21.823Z,11.56
2023-03-20T01:31:49.523Z,11.58
2023-03-20T01:34:19.222Z,11.60
2023-03-20T01:36:52.964Z,11.60
2023-03-20T01:39:21.895Z,11.62
2023-03-20T01:41:49.671Z,11.64
2023-03-20T01:44:22.100Z,11.65
2023-03-20T01:46:49.986Z,11.67
2023-03-20T01:49:19.407Z,11.67
2023-03-20T01:51:49.755Z,11.68
2023-03-20T01:54:38.000Z,11.64
2023-03-20T01:57:16.648Z,11.67
2023-03-20T02:00:04.098Z,11.63
2023-03-20T02:02:32.001Z,11.66
2023-03-20T02:05:07.168Z,11.64
2023-03-20T02:07:34.948Z,11.63
2023-03-20T02:10:03.887Z,11.60
2023-03-20T02:12:31.535Z,11.56
2023-03-20T02:14:58.601Z,11.51
2023-03-20T02:17:25.025Z,11.47
2023-03-20T02:20:06.293Z,11.39
2023-03-20T02:22:51.418Z,11.39
2023-03-20T02:25:55.133Z,11.31
2023-03-20T02:28:52.212Z,11.32
2023-03-20T02:31:54.221Z,11.29
2023-03-20T02:34:35.920Z,11.24
2023-03-20T02:37:30.262Z,11.22
2023-03-20T02:40:10.796Z,11.19
2023-03-20T02:42:51.120Z,11.18
2023-03-20T02:45:26.562Z,11.16
2023-03-20T02:48:17.943Z,11.14
2023-03-20T02:50:53.860Z,11.13
2023-03-20T02:53:41.836Z,11.11
2023-03-20T02:56:11.489Z,11.14
2023-03-20T02:58:59.318Z,11.10
2023-03-20T03:01:33.108Z,11.12
2023-03-20T03:04:25.227Z,11.10
2023-03-20T03:06:55.683Z,11.12
2023-03-20T03:09:31.108Z,11.10
2023-03-20T03:12:05.408Z,11.12
2023-03-20T03:14:42.820Z,11.12
2023-03-20T03:17:10.913Z,11.14
2023-03-20T03:19:41.628Z,11.14
2023-03-20T03:22:08.342Z,11.14
2023-03-20T03:24:43.096Z,11.12
2023-03-20T03:27:21.261Z,11.08
2023-03-20T03:29:53.850Z,11.11
2023-03-20T03:32:29.557Z,11.07
2023-03-20T03:34:57.276Z,11.10
2023-03-20T03:37:39.317Z,11.08
2023-03-20T03:40:46.029Z,11.08
2023-03-20T03:43:23.869Z,11.12
2023-03-20T03:45:57.861Z,11.12
2023-03-20T03:48:30.564Z,11.12
2023-03-20T03:51:02.494Z,11.13
2023-03-20T03:53:36.462Z,11.13
2023-03-20T03:56:07.875Z,11.14
2023-03-20T03:58:42.873Z,11.13
2023-03-20T04:01:14.308Z,11.14
2023-03-20T04:04:06.126Z,11.14
2023-03-20T04:06:33.376Z,11.18
2023-03-20T04:08:59.687Z,11.17
2023-03-20T04:11:29.023Z,11.18
2023-03-20T04:13:55.797Z,11.18
2023-03-20T04:16:24.358Z,11.18
2023-03-20T04:18:51.546Z,11.19
2023-03-20T04:21:18.660Z,11.18
2023-03-20T04:23:45.342Z,11.19
2023-03-20T04:26:11.946Z,11.18
2023-03-20T04:28:38.301Z,11.17
2023-03-20T04:31:04.786Z,11.16
2023-03-20T04:33:31.114Z,11.14
2023-03-20T04:35:57.478Z,11.13
2023-03-20T04:38:24.404Z,11.12
2023-03-20T04:40:51.027Z,11.13
2023-03-20T04:43:17.646Z,11.10
2023-03-20T04:45:44.131Z,11.10
2023-03-20T04:48:10.862Z,11.09
2023-03-20T04:50:37.290Z,11.07
2023-03-20T04:53:03.788Z,11.06
2023-03-20T04:55:30.216Z,11.04
2023-03-20T04:57:56.555Z,11.01
2023-03-20T05:00:23.211Z,10.98
2023-03-20T05:02:49.539Z,10.97
2023-03-20T05:05:15.878Z,10.93
2023-03-20T05:07:42.184Z,10.89
2023-03-20T05:10:09.250Z,10.86
2023-03-20T05:12:35.754Z,10.82
2023-03-20T05:15:02.161Z,10.77
2023-03-20T05:17:28.477Z,10.74
2023-03-20T05:19:54.801Z,10.72
2023-03-20T05:22:21.135Z,10.69
2023-03-20T05:24:47.517Z,10.66
2023-03-20T05:27:13.893Z,10.63
2023-03-20T05:29:40.295Z,10.60
2023-03-20T05:32:06.745Z,10.57
2023-03-20T05:34:33.093Z,10.53
2023-03-20T05:36:59.510Z,10.51
2023-03-20T05:39:26.021Z,10.48
2023-03-20T05:41:52.372Z,10.46
2023-03-20T05:44:18.711Z,10.41
2023-03-20T05:46:45.177Z,10.40
2023-03-20T05:49:11.531Z,10.39
2023-03-20T05:51:38.095Z,10.37
2023-03-20T05:54:04.894Z,10.36
2023-03-20T05:56:31.435Z,10.36
2023-03-20T05:58:57.764Z,10.35
2023-03-20T06:01:24.153Z,10.35
2023-03-20T06:03:50.840Z,10.35
2023-03-20T06:06:17.797Z,10.35
2023-03-20T06:08:44.306Z,10.34
2023-03-20T06:11:12.011Z,10.33
2023-03-20T06:13:38.384Z,10.31
2023-03-20T06:16:05.167Z,10.32
2023-03-20T06:18:31.571Z,10.33
2023-03-20T06:20:58.096Z,10.34
2023-03-20T06:23:24.474Z,10.34
2023-03-20T06:25:51.235Z,10.35
2023-03-20T06:28:17.640Z,10.35
2023-03-20T06:30:44.482Z,10.35
2023-03-20T06:33:10.912Z,10.36
2023-03-20T06:35:37.536Z,10.37
2023-03-20T06:38:04.065Z,10.36
2023-03-20T06:40:30.530Z,10.37
2023-03-20T06:42:56.999Z,10.37
2023-03-20T06:45:25.963Z,10.35
2023-03-20T06:47:52.411Z,10.36
2023-03-20T06:50:18.860Z,10.36
2023-03-20T06:52:45.249Z,10.36
2023-03-20T06:55:11.799Z,10.37
2023-03-20T06:57:38.541Z,10.37
2023-03-20T07:00:06.290Z,10.39
2023-03-20T07:02:33.268Z,10.45
2023-03-20T07:04:59.645Z,10.48
2023-03-20T07:07:25.993Z,10.51
2023-03-20T07:09:52.316Z,10.54
2023-03-20T07:12:22.872Z,10.54
2023-03-20T07:14:49.850Z,10.56
2023-03-20T07:17:16.596Z,10.58
2023-03-20T07:19:42.933Z,10.59
2023-03-20T07:22:18.404Z,10.59
2023-03-20T07:24:47.197Z,10.61
2023-03-20T07:27:13.745Z,10.63
2023-03-20T07:29:40.067Z,10.64
2023-03-20T07:32:06.479Z,10.65
2023-03-20T07:34:32.799Z,10.66
2023-03-20T07:36:59.301Z,10.66
2023-03-20T07:39:25.816Z,10.70
2023-03-20T07:41:52.285Z,10.72
2023-03-20T07:44:19.405Z,10.73
2023-03-20T07:46:49.113Z,10.74
2023-03-20T07:49:18.350Z,10.76
2023-03-20T07:51:49.137Z,10.78
2023-03-20T07:54:16.126Z,10.78
2023-03-20T07:56:45.269Z,10.77
2023-03-20T07:59:12.720Z,10.76
2023-03-20T08:01:44.238Z,10.76
2023-03-20T08:08:02.314Z,10.84
2023-03-20T08:10:29.021Z,10.84
2023-03-20T08:12:56.187Z,10.85
2023-03-20T08:15:22.722Z,10.88
2023-03-20T08:17:49.720Z,10.90
2023-03-20T08:20:17.383Z,10.92
2023-03-20T08:22:47.131Z,10.93
2023-03-20T08:25:13.643Z,10.95
2023-03-20T08:27:40.176Z,10.99
2023-03-20T08:30:07.477Z,11.03
2023-03-20T08:32:34.049Z,11.07
2023-03-20T08:35:00.739Z,11.11
2023-03-20T08:37:27.794Z,11.17
2023-03-20T08:39:57.079Z,11.19
2023-03-20T08:42:23.637Z,11.27
2023-03-20T08:44:50.568Z,11.30
2023-03-20T08:47:17.180Z,11.36
2023-03-20T08:49:43.756Z,11.40
2023-03-20T08:52:10.331Z,11.46
2023-03-20T08:54:36.879Z,11.51
2023-03-20T08:57:03.460Z,11.55
2023-03-20T08:59:29.932Z,11.58
2023-03-20T09:01:56.438Z,11.63
2023-03-20T09:04:23.046Z,11.68
2023-03-20T09:06:50.520Z,11.71
2023-03-20T09:09:19.883Z,11.72
2023-03-20T09:11:46.488Z,11.72
2023-03-20T09:14:13.078Z,11.73
2023-03-20T09:16:39.642Z,11.71
2023-03-20T09:19:06.560Z,11.71
2023-03-20T09:21:33.018Z,11.72
2023-03-20T09:23:59.542Z,11.72
2023-03-20T09:26:25.941Z,11.75
2023-03-20T09:28:52.403Z,11.76
2023-03-20T09:31:18.906Z,11.78
2023-03-20T09:33:45.657Z,11.79
2023-03-20T09:36:12.348Z,11.79
2023-03-20T09:38:41.845Z,11.80
2023-03-20T09:41:18.685Z,11.79
2023-03-20T09:43:45.427Z,11.84
2023-03-20T09:46:38.718Z,11.84
2023-03-20T09:49:23.364Z,11.90
2023-03-20T09:52:08.071Z,11.96
2023-03-20T09:54:53.619Z,12.03
2023-03-20T09:57:35.283Z,12.11
2023-03-20T10:00:07.875Z,12.17
2023-03-20T10:02:50.079Z,12.22
2023-03-20T10:05:31.709Z,12.28
2023-03-20T10:08:01.910Z,12.33
2023-03-20T10:11:16.260Z,12.32
2023-03-20T10:13:58.532Z,12.37
2023-03-20T10:16:53.203Z,12.41
2023-03-20T10:19:29.839Z,12.47
2023-03-20T10:22:02.788Z,12.50
2023-03-20T10:24:44.377Z,12.58
2023-03-20T10:27:34.139Z,12.59
2023-03-20T10:30:25.937Z,12.63
2023-03-20T10:33:26.756Z,12.64
2023-03-20T10:36:22.459Z,12.64
2023-03-20T10:39:12.707Z,12.67
2023-03-20T10:41:43.163Z,12.74
2023-03-20T10:44:17.069Z,12.79
2023-03-20T10:46:51.610Z,12.83
2023-03-20T10:49:36.468Z,12.89
2023-03-20T10:52:09.696Z,12.88
2023-03-20T10:54:43.565Z,12.87
2023-03-20T10:57:24.882Z,12.90
2023-03-20T10:59:52.480Z,12.94
2023-03-20T11:02:23.235Z,12.92
2023-03-20T11:04:50.446Z,12.92
2023-03-20T11:07:32.704Z,12.86
2023-03-20T11:10:05.073Z,12.81
2023-03-20T11:12:37.644Z,12.76
2023-03-20T11:15:19.309Z,12.70
2023-03-20T11:17:57.847Z,12.66
2023-03-20T11:20:26.738Z,12.63
2023-03-20T11:23:18.118Z,12.54
2023-03-20T11:26:04.057Z,12.50
2023-03-20T11:28:42.364Z,12.47
2023-03-20T11:31:19.803Z,12.43
2023-03-20T11:33:52.628Z,12.41
2023-03-20T11:36:25.326Z,12.42
2023-03-20T11:38:58.561Z,12.42
2023-03-20T11:41:28.129Z,12.42
2023-03-20T11:43:55.260Z,12.42
2023-03-20T11:46:24.416Z,12.38
2023-03-20T11:49:17.346Z,12.35
2023-03-20T11:51:43.957Z,12.39
2023-03-20T11:54:17.572Z,12.38
2023-03-20T11:57:00.728Z,12.37
2023-03-20T11:59:34.074Z,12.39
2023-03-20T12:02:03.025Z,12.39
2023-03-20T12:04:37.749Z,12.33
2023-03-20T12:07:13.126Z,12.30
2023-03-20T12:09:48.605Z,12.28
2023-03-20T12:12:36.928Z,12.17
2023-03-20T12:15:12.732Z,12.14
2023-03-20T12:18:03.348Z,12.11
2023-03-20T12:21:04.052Z,12.11
2023-03-20T12:23:39.865Z,12.15
2023-03-20T12:26:15.536Z,12.13
2023-03-20T12:28:52.123Z,12.15
2023-03-20T12:31:24.866Z,12.16
2023-03-20T12:33:51.425Z,12.23
2023-03-20T12:36:27.670Z,12.23
2023-03-20T12:38:54.144Z,12.28
2023-03-20T12:41:48.929Z,12.28
2023-03-20T12:44:21.940Z,12.32
2023-03-20T12:46:48.577Z,12.30
2023-03-20T12:49:37.918Z,12.28
2023-03-20T12:52:44.881Z,12.18
2023-03-20T12:55:25.761Z,12.11
2023-03-20T12:58:07.166Z,12.04
2023-03-20T13:00:49.644Z,12.03
2023-03-20T13:03:34.254Z,11.98
2023-03-20T13:06:36.682Z,11.98
2023-03-20T13:09:23.049Z,11.97
2023-03-20T13:12:08.755Z,11.93
2023-03-20T13:14:44.369Z,11.91
2023-03-20T13:17:33.748Z,11.83
2023-03-20T13:20:06.468Z,11.85
2023-03-20T13:22:48.599Z,11.85
2023-03-20T13:25:32.198Z,11.86
2023-03-20T13:28:04.437Z,11.90
2023-03-20T13:30:44.802Z,11.89
2023-03-20T13:33:45.134Z,11.89
2023-03-20T13:39:22.187Z,11.88
2023-03-20T13:41:49.492Z,11.89
2023-03-20T13:44:20.884Z,11.89
2023-03-20T13:46:55.254Z,11.90
2023-03-20T13:49:48.078Z,11.94
2023-03-20T13:52:19.212Z,12.04
2023-03-20T13:54:53.608Z,12.08
2023-03-20T13:58:20.340Z,12.16
2023-03-20T14:00:56.131Z,12.24
2023-03-20T14:03:30.836Z,12.25
2023-03-20T14:05:57.427Z,12.24
2023-03-20T14:08:26.776Z,12.23
2023-03-20T14:11:07.735Z,12.16
2023-03-20T14:13:35.383Z,12.18
2023-03-20T14:16:07.441Z,12.10
2023-03-20T14:18:34.040Z,12.08
2023-03-20T14:21:02.401Z,12.07
2023-03-20T14:23:34.950Z,12.01
2023-03-20T14:26:05.933Z,12.02
2023-03-20T14:28:44.545Z,11.98
2023-03-20T14:31:23.097Z,12.02
2023-03-20T14:34:12.485Z,11.97
2023-03-20T14:36:59.577Z,11.99
2023-03-20T14:39:41.264Z,12.01
2023-03-20T14:42:35.325Z,11.95
2023-03-20T14:45:14.023Z,11.90
2023-03-20T14:48:01.815Z,11.81
2023-03-20T14:50:46.477Z,11.74
2023-03-20T14:53:19.329Z,11.71
2023-03-20T14:56:05.575Z,11.63
2023-03-20T14:58:37.791Z,11.60
2023-03-20T15:01:06.628Z,11.56
2023-03-20T15:03:33.496Z,11.53
2023-03-20T15:06:04.520Z,11.47
2023-03-20T15:08:37.346Z,11.39
2023-03-20T15:11:08.758Z,11.37
2023-03-20T15:13:37.566Z,11.33
2023-03-20T15:16:06.978Z,11.27
2023-03-20T15:18:39.133Z,11.20
2023-03-20T15:21:13.289Z,11.15
2023-03-20T15:23:42.583Z,11.13
2023-03-20T15:26:09.098Z,11.10
2023-03-20T15:28:37.951Z,11.04
2023-03-20T15:31:06.358Z,11.03
2023-03-20T15:33:36.558Z,11.01
2023-03-20T15:36:15.998Z,10.99
2023-03-20T15:38:44.223Z,11.01
2023-03-20T15:41:31.993Z,10.99
2023-03-20T15:44:20.628Z,11.02
2023-03-20T15:47:03.360Z,11.01
2023-03-20T15:49:32.406Z,11.05
2023-03-20T15:52:03.038Z,11.04
2023-03-20T15:54:29.583Z,11.04
2023-03-20T15:57:00.646Z,11.01
2023-03-20T15:59:31.396Z,10.99
2023-03-20T16:01:59.459Z,10.96
2023-03-20T16:04:26.959Z,10.93
2023-03-20T16:06:56.220Z,10.92
2023-03-20T16:09:23.384Z,10.89
2023-03-20T16:11:59.651Z,10.82
2023-03-20T16:14:33.498Z,10.81
2023-03-20T16:17:02.820Z,10.79
2023-03-20T16:19:29.747Z,10.77
2023-03-20T16:21:59.552Z,10.73
2023-03-20T16:24:31.230Z,10.68
2023-03-20T16:26:58.400Z,10.65
2023-03-20T16:29:28.122Z,10.59
2023-03-20T16:32:03.854Z,10.57
2023-03-20T16:34:38.611Z,10.58
2023-03-20T16:37:32.576Z,10.54
2023-03-20T16:40:18.088Z,10.52
2023-03-20T16:42:45.553Z,10.51
2023-03-20T16:45:22.068Z,10.45
2023-03-20T16:47:49.549Z,10.43
2023-03-20T16:50:19.109Z,10.40
2023-03-20T16:53:14.168Z,10.32
2023-03-20T16:55:51.291Z,10.31
2023-03-20T16:58:21.961Z,10.30
2023-03-20T17:00:57.511Z,10.28
2023-03-20T17:03:30.399Z,10.25
2023-03-20T17:05:59.673Z,10.25
2023-03-20T17:08:40.059Z,10.22
2023-03-20T17:11:12.962Z,10.20
2023-03-20T17:13:41.181Z,10.19
2023-03-20T17:16:13.689Z,10.16
2023-03-20T17:18:40.496Z,10.15
2023-03-20T17:21:07.096Z,10.14
2023-03-20T17:23:33.444Z,10.10
2023-03-20T17:25:59.787Z,10.08
2023-03-20T17:28:33.797Z,10.03
2023-03-20T17:31:05.007Z,10.04
2023-03-20T17:33:33.205Z,10.04
2023-03-20T17:36:00.797Z,10.04
2023-03-20T17:38:27.614Z,10.04
2023-03-20T17:40:54.060Z,10.07
2023-03-20T17:43:20.881Z,10.08
2023-03-20T17:45:47.772Z,10.10
2023-03-20T17:48:17.992Z,10.10
2023-03-20T17:50:45.798Z,10.09
2023-03-20T17:53:28.747Z,10.07
2023-03-20T17:55:55.242Z,10.10
2023-03-20T17:58:23.309Z,10.08
2023-03-20T18:00:54.748Z,10.05
2023-03-20T18:03:21.652Z,10.07
2023-03-20T18:05:50.535Z,10.06
2023-03-20T18:08:21.318Z,10.05
2023-03-20T18:10:49.665Z,10.04
2023-03-20T18:13:20.751Z,10.06
2023-03-20T18:15:51.523Z,10.05
2023-03-20T18:18:23.719Z,10.04
2023-03-20T18:20:52.269Z,10.05
2023-03-20T18:23:18.739Z,10.03
2023-03-20T18:25:45.188Z,10.01
2023-03-20T18:28:18.379Z,9.98
2023-03-20T18:30:45.985Z,9.98
2023-03-20T18:33:12.426Z,9.96
2023-03-20T18:35:38.874Z,9.95
2023-03-20T18:38:05.578Z,9.96
2023-03-20T18:40:34.474Z,9.95
2023-03-20T18:43:01.386Z,9.97
2023-03-20T18:45:29.658Z,9.97
2023-03-20T18:47:57.329Z,9.95
2023-03-20T18:50:35.057Z,9.94
2023-03-20T18:53:04.535Z,9.97
2023-03-20T18:55:31.654Z,9.98
2023-03-20T18:57:58.981Z,10.00
2023-03-20T19:00:39.829Z,9.98
2023-03-20T19:03:07.953Z,10.02
2023-03-20T19:05:34.369Z,10.04
2023-03-20T19:08:01.050Z,10.06
2023-03-20T19:10:39.309Z,10.04
2023-03-20T19:13:07.538Z,10.07
2023-03-20T19:15:37.140Z,10.07
2023-03-20T19:18:24.684Z,10.08
2023-03-20T19:20:53.200Z,10.09
2023-03-20T19:23:20.548Z,10.10
2023-03-20T19:25:49.363Z,10.09
2023-03-20T19:28:39.324Z,10.06
2023-03-20T19:31:06.873Z,10.10
2023-03-20T19:33:33.872Z,10.10
2023-03-20T19:36:03.687Z,10.12
2023-03-20T19:38:31.559Z,10.11
2023-03-20T19:40:59.279Z,10.11
2023-03-20T19:43:25.864Z,10.10
2023-03-20T19:45:57.999Z,10.09
2023-03-20T19:48:43.333Z,10.08
2023-03-20T19:51:19.948Z,10.08
2023-03-20T19:53:47.077Z,10.07
2023-03-20T19:56:15.478Z,10.08
2023-03-20T19:58:43.318Z,10.09
2023-03-20T20:01:16.019Z,10.07
2023-03-20T20:03:46.257Z,10.11
2023-03-20T20:06:13.066Z,10.13
2023-03-20T20:08:49.047Z,10.13
2023-03-20T20:11:20.590Z,10.13
2023-03-20T20:14:05.169Z,10.14
2023-03-20T20:16:35.393Z,10.16
2023-03-20T20:19:02.378Z,10.16
2023-03-20T20:24:16.365Z,10.14
2023-03-20T20:26:53.394Z,10.12
2023-03-20T20:29:21.715Z,10.11
2023-03-20T20:31:48.434Z,10.08
2023-03-20T20:39:49.834Z,10.03
2023-03-20T20:42:20.505Z,10.02
2023-03-20T20:44:47.552Z,9.99
2023-03-20T20:47:14.731Z,9.99
2023-03-20T20:49:41.495Z,9.97
2023-03-20T20:52:08.842Z,9.96
2023-03-20T20:54:35.330Z,9.96
2023-03-20T20:57:02.107Z,9.96
2023-03-20T20:59:29.451Z,9.95
2023-03-20T21:01:56.441Z,9.94
2023-03-20T21:04:23.508Z,9.94
2023-03-20T21:07:08.652Z,9.94
2023-03-20T21:09:36.678Z,9.94
2023-03-20T21:12:04.135Z,9.95
2023-03-20T21:14:30.824Z,9.93
2023-03-20T21:17:00.964Z,9.93
2023-03-20T21:19:35.405Z,9.91
2023-03-20T21:22:01.929Z,9.95
2023-03-20T21:24:33.638Z,9.95
2023-03-20T21:27:05.397Z,9.97
2023-03-20T21:29:31.958Z,9.97
2023-03-20T21:31:58.609Z,9.97
2023-03-20T21:34:26.098Z,9.98
2023-03-20T21:36:52.724Z,9.98
2023-03-20T21:39:19.398Z,9.99
2023-03-20T21:41:46.128Z,10.00
2023-03-20T21:44:17.417Z,10.02
2023-03-20T21:47:38.087Z,10.04
2023-03-20T21:50:30.836Z,10.06
2023-03-20T21:53:14.765Z,10.09
2023-03-20T21:56:08.983Z,10.11
2023-03-20T22:04:37.563Z,10.17
2023-03-20T22:12:30.257Z,10.24
2023-03-20T22:15:20.083Z,10.25
2023-03-20T22:17:55.897Z,10.27
2023-03-20T22:23:42.671Z,10.30
2023-03-20T22:26:36.394Z,10.32
2023-03-20T22:45:11.624Z,10.46
2023-03-20T22:47:38.397Z,10.46
2023-03-20T22:50:06.233Z,10.47
2023-03-20T22:52:48.128Z,10.49
2023-03-20T22:55:16.781Z,10.51
2023-03-20T22:57:52.888Z,10.52
2023-03-20T23:00:29.989Z,10.54
2023-03-20T23:03:06.665Z,10.55
2023-03-20T23:05:41.092Z,10.56
2023-03-20T23:08:08.999Z,10.58
2023-03-20T23:10:38.049Z,10.59
2023-03-20T23:13:04.733Z,10.62
2023-03-20T23:15:31.703Z,10.65
2023-03-20T23:17:58.760Z,10.68
2023-03-20T23:20:25.634Z,10.69
2023-03-20T23:22:52.152Z,10.72
2023-03-20T23:25:36.057Z,10.74
2023-03-20T23:28:04.916Z,10.77
2023-03-20T23:30:41.959Z,10.81
2023-03-20T23:33:10.847Z,10.84
2023-03-20T23:35:37.486Z,10.86
2023-03-20T23:38:03.996Z,10.88
2023-03-20T23:40:31.057Z,10.88
2023-03-20T23:42:57.629Z,10.90
2023-03-20T23:45:24.357Z,10.91
2023-03-20T23:47:51.060Z,10.93
2023-03-20T23:53:19.461Z,10.97
2023-03-20T23:55:48.326Z,10.98
2023-03-20T23:58:15.720Z,10.98
